Graves Mill, Virginia
Current Conditions -  °F | °C
As of 11:15 AM on Sunday 25 Jan 2015 (Local Time) from KLUA Reporting Station
Clear Clear  
Wind Chill: 39°   Ceiling: Unl
Heat Index: 43°   Visibility: 10mi
Dew Point: 32°   Wind: 7mph
Humidity: 66%   Direction: 200°SSW
Pressure: 29.84"   Gusts: NA
Location:  38.42°N, 78.37°W
Report Text: KLUA 251615Z AUTO 20006KT 10SM CLR 06/00 A2984 RMK AO2
Loading
Personal Weather Stations






























Interactive Weather Map New forecast layout! Learn more

10-Day Weather Forecast

Advertisements
Track Severe Weather on mobile